sensor_id;sensor_type;location;lat;lon;timestamp;temperature;humidity
1179;DHT22;578;48.408;10.004;2023-02-19T00:00:13;9.80;99.90
1179;DHT22;578;48.408;10.004;2023-02-19T00:02:41;9.80;99.90
1179;DHT22;578;48.408;10.004;2023-02-19T00:05:09;9.80;99.90
1179;DHT22;578;48.408;10.004;2023-02-19T00:07:36;9.80;99.90
1179;DHT22;578;48.408;10.004;2023-02-19T00:10:03;9.90;99.90
1179;DHT22;578;48.408;10.004;2023-02-19T00:12:29;9.90;99.90
1179;DHT22;578;48.408;10.004;2023-02-19T00:14:56;9.80;99.90
1179;DHT22;578;48.408;10.004;2023-02-19T00:17:24;9.80;99.90
1179;DHT22;578;48.408;10.004;2023-02-19T00:19:51;9.80;99.90
1179;DHT22;578;48.408;10.004;2023-02-19T00:22:17;9.80;99.90
1179;DHT22;578;48.408;10.004;2023-02-19T00:24:44;9.80;99.90
1179;DHT22;578;48.408;10.004;2023-02-19T00:27:11;9.80;99.90
1179;DHT22;578;48.408;10.004;2023-02-19T00:29:37;9.70;99.90
1179;DHT22;578;48.408;10.004;2023-02-19T00:32:04;9.70;99.90
1179;DHT22;578;48.408;10.004;2023-02-19T00:34:32;9.70;99.90
1179;DHT22;578;48.408;10.004;2023-02-19T00:36:59;9.70;99.90
1179;DHT22;578;48.408;10.004;2023-02-19T00:39:25;9.70;99.90
1179;DHT22;578;48.408;10.004;2023-02-19T00:41:52;9.70;99.90
1179;DHT22;578;48.408;10.004;2023-02-19T00:44:19;9.70;99.90
1179;DHT22;578;48.408;10.004;2023-02-19T00:46:46;9.70;99.90
1179;DHT22;578;48.408;10.004;2023-02-19T00:49:16;9.80;99.90
1179;DHT22;578;48.408;10.004;2023-02-19T00:51:44;9.70;99.90
1179;DHT22;578;48.408;10.004;2023-02-19T00:54:12;9.80;99.90
1179;DHT22;578;48.408;10.004;2023-02-19T00:56:38;9.70;99.90
1179;DHT22;578;48.408;10.004;2023-02-19T00:59:05;9.70;99.90
1179;DHT22;578;48.408;10.004;2023-02-19T01:01:32;9.80;99.90
1179;DHT22;578;48.408;10.004;2023-02-19T01:03:58;9.70;99.90
1179;DHT22;578;48.408;10.004;2023-02-19T01:06:25;9.70;99.90
1179;DHT22;578;48.408;10.004;2023-02-19T01:08:55;9.70;99.90
1179;DHT22;578;48.408;10.004;2023-02-19T01:11:22;9.70;99.90
1179;DHT22;578;48.408;10.004;2023-02-19T01:13:49;9.60;99.90
1179;DHT22;578;48.408;10.004;2023-02-19T01:16:17;9.70;99.90
1179;DHT22;578;48.408;10.004;2023-02-19T01:18:45;9.70;99.90
1179;DHT22;578;48.408;10.004;2023-02-19T01:21:14;9.70;99.90
1179;DHT22;578;48.408;10.004;2023-02-19T01:23:41;9.70;99.90
1179;DHT22;578;48.408;10.004;2023-02-19T01:26:12;9.60;99.90
1179;DHT22;578;48.408;10.004;2023-02-19T01:28:40;9.70;99.90
1179;DHT22;578;48.408;10.004;2023-02-19T01:31:09;9.60;99.90
1179;DHT22;578;48.408;10.004;2023-02-19T01:33:37;9.60;99.90
1179;DHT22;578;48.408;10.004;2023-02-19T01:36:04;9.60;99.90
1179;DHT22;578;48.408;10.004;2023-02-19T01:38:31;9.60;99.90
1179;DHT22;578;48.408;10.004;2023-02-19T01:41:00;9.60;99.90
1179;DHT22;578;48.408;10.004;2023-02-19T01:43:28;9.60;99.90
1179;DHT22;578;48.408;10.004;2023-02-19T01:45:57;9.60;99.90
1179;DHT22;578;48.408;10.004;2023-02-19T01:48:25;9.50;99.90
1179;DHT22;578;48.408;10.004;2023-02-19T01:50:55;9.50;99.90
1179;DHT22;578;48.408;10.004;2023-02-19T01:53:26;9.50;99.90
1179;DHT22;578;48.408;10.004;2023-02-19T01:55:56;9.60;99.90
1179;DHT22;578;48.408;10.004;2023-02-19T01:58:25;9.50;99.90
1179;DHT22;578;48.408;10.004;2023-02-19T02:00:55;9.50;99.90
1179;DHT22;578;48.408;10.004;2023-02-19T02:03:22;9.50;99.90
1179;DHT22;578;48.408;10.004;2023-02-19T02:05:52;9.50;99.90
1179;DHT22;578;48.408;10.004;2023-02-19T02:08:21;9.50;99.90
1179;DHT22;578;48.408;10.004;2023-02-19T02:11:06;9.50;99.90
1179;DHT22;578;48.408;10.004;2023-02-19T02:13:34;9.50;99.90
1179;DHT22;578;48.408;10.004;2023-02-19T02:16:12;9.50;99.90
1179;DHT22;578;48.408;10.004;2023-02-19T02:18:49;9.40;99.90
1179;DHT22;578;48.408;10.004;2023-02-19T02:21:47;9.40;99.90
1179;DHT22;578;48.408;10.004;2023-02-19T02:27:27;9.40;99.90
1179;DHT22;578;48.408;10.004;2023-02-19T02:30:16;9.40;99.90
1179;DHT22;578;48.408;10.004;2023-02-19T02:32:50;9.50;99.90
1179;DHT22;578;48.408;10.004;2023-02-19T02:35:22;9.40;99.90
1179;DHT22;578;48.408;10.004;2023-02-19T02:37:50;9.30;99.90
1179;DHT22;578;48.408;10.004;2023-02-19T02:40:19;9.30;99.90
1179;DHT22;578;48.408;10.004;2023-02-19T02:42:46;9.30;99.90
1179;DHT22;578;48.408;10.004;2023-02-19T02:45:26;9.20;99.90
1179;DHT22;578;48.408;10.004;2023-02-19T02:48:08;9.20;99.90
1179;DHT22;578;48.408;10.004;2023-02-19T02:50:40;9.30;99.90
1179;DHT22;578;48.408;10.004;2023-02-19T02:53:11;9.30;99.90
1179;DHT22;578;48.408;10.004;2023-02-19T02:55:57;9.30;99.90
1179;DHT22;578;48.408;10.004;2023-02-19T02:58:25;9.20;99.90
1179;DHT22;578;48.408;10.004;2023-02-19T03:00:57;9.20;99.90
1179;DHT22;578;48.408;10.004;2023-02-19T03:03:44;9.20;99.90
1179;DHT22;578;48.408;10.004;2023-02-19T03:06:15;9.20;99.90
1179;DHT22;578;48.408;10.004;2023-02-19T03:08:46;9.20;99.90
1179;DHT22;578;48.408;10.004;2023-02-19T03:11:14;9.20;99.90
1179;DHT22;578;48.408;10.004;2023-02-19T03:14:03;9.20;99.90
1179;DHT22;578;48.408;10.004;2023-02-19T03:16:55;9.20;99.90
1179;DHT22;578;48.408;10.004;2023-02-19T03:19:42;9.10;99.90
1179;DHT22;578;48.408;10.004;2023-02-19T03:22:14;9.10;99.90
1179;DHT22;578;48.408;10.004;2023-02-19T03:24:46;9.20;99.90
1179;DHT22;578;48.408;10.004;2023-02-19T03:27:32;9.10;99.90
1179;DHT22;578;48.408;10.004;2023-02-19T03:30:06;9.00;99.90
1179;DHT22;578;48.408;10.004;2023-02-19T03:32:39;9.10;99.90
1179;DHT22;578;48.408;10.004;2023-02-19T03:35:12;9.00;99.90
1179;DHT22;578;48.408;10.004;2023-02-19T03:37:43;8.90;99.90
1179;DHT22;578;48.408;10.004;2023-02-19T03:40:12;8.90;99.90
1179;DHT22;578;48.408;10.004;2023-02-19T03:42:42;8.80;99.90
1179;DHT22;578;48.408;10.004;2023-02-19T03:45:30;8.80;99.90
1179;DHT22;578;48.408;10.004;2023-02-19T03:48:09;8.80;99.90
1179;DHT22;578;48.408;10.004;2023-02-19T03:50:44;8.70;99.90
1179;DHT22;578;48.408;10.004;2023-02-19T03:53:22;8.70;99.90
1179;DHT22;578;48.408;10.004;2023-02-19T03:56:03;8.70;99.90
1179;DHT22;578;48.408;10.004;2023-02-19T03:58:34;8.70;99.90
1179;DHT22;578;48.408;10.004;2023-02-19T04:01:05;8.70;99.90
1179;DHT22;578;48.408;10.004;2023-02-19T04:03:39;8.60;99.90
1179;DHT22;578;48.408;10.004;2023-02-19T04:06:10;8.60;99.90
1179;DHT22;578;48.408;10.004;2023-02-19T04:08:41;8.70;99.90
1179;DHT22;578;48.408;10.004;2023-02-19T04:11:10;8.70;99.90
1179;DHT22;578;48.408;10.004;2023-02-19T04:13:42;8.60;99.90
1179;DHT22;578;48.408;10.004;2023-02-19T04:16:12;8.60;99.90
1179;DHT22;578;48.408;10.004;2023-02-19T04:18:43;8.60;99.90
1179;DHT22;578;48.408;10.004;2023-02-19T04:21:10;8.60;99.90
1179;DHT22;578;48.408;10.004;2023-02-19T04:23:41;8.40;99.90
1179;DHT22;578;48.408;10.004;2023-02-19T04:26:09;8.30;99.90
1179;DHT22;578;48.408;10.004;2023-02-19T04:28:37;8.30;99.90
1179;DHT22;578;48.408;10.004;2023-02-19T04:31:05;8.40;99.90
1179;DHT22;578;48.408;10.004;2023-02-19T04:33:31;8.20;99.90
1179;DHT22;578;48.408;10.004;2023-02-19T04:36:00;8.30;99.90
1179;DHT22;578;48.408;10.004;2023-02-19T04:38:26;8.30;99.90
1179;DHT22;578;48.408;10.004;2023-02-19T04:40:53;8.20;99.90
1179;DHT22;578;48.408;10.004;2023-02-19T04:43:20;8.30;99.90
1179;DHT22;578;48.408;10.004;2023-02-19T04:45:46;8.30;99.90
1179;DHT22;578;48.408;10.004;2023-02-19T04:48:13;8.40;99.90
1179;DHT22;578;48.408;10.004;2023-02-19T04:50:40;8.50;99.90
1179;DHT22;578;48.408;10.004;2023-02-19T04:53:08;8.40;99.90
1179;DHT22;578;48.408;10.004;2023-02-19T04:55:36;8.40;99.90
1179;DHT22;578;48.408;10.004;2023-02-19T04:58:03;8.40;99.90
1179;DHT22;578;48.408;10.004;2023-02-19T05:00:30;8.40;99.90
1179;DHT22;578;48.408;10.004;2023-02-19T05:02:58;8.40;99.90
1179;DHT22;578;48.408;10.004;2023-02-19T05:05:25;8.40;99.90
1179;DHT22;578;48.408;10.004;2023-02-19T05:07:52;8.50;99.90
1179;DHT22;578;48.408;10.004;2023-02-19T05:10:20;8.50;99.90
1179;DHT22;578;48.408;10.004;2023-02-19T05:12:46;8.50;99.90
1179;DHT22;578;48.408;10.004;2023-02-19T05:15:13;8.60;99.90
1179;DHT22;578;48.408;10.004;2023-02-19T05:17:40;8.60;99.90
1179;DHT22;578;48.408;10.004;2023-02-19T05:20:07;8.70;99.90
1179;DHT22;578;48.408;10.004;2023-02-19T05:22:34;8.80;99.90
1179;DHT22;578;48.408;10.004;2023-02-19T05:25:01;8.90;99.90
1179;DHT22;578;48.408;10.004;2023-02-19T05:27:31;8.90;99.90
1179;DHT22;578;48.408;10.004;2023-02-19T05:29:57;9.00;99.90
1179;DHT22;578;48.408;10.004;2023-02-19T05:32:24;9.00;99.90
1179;DHT22;578;48.408;10.004;2023-02-19T05:34:51;9.00;99.90
1179;DHT22;578;48.408;10.004;2023-02-19T05:37:17;9.10;99.90
1179;DHT22;578;48.408;10.004;2023-02-19T05:39:44;9.10;99.90
1179;DHT22;578;48.408;10.004;2023-02-19T05:42:12;9.10;99.90
1179;DHT22;578;48.408;10.004;2023-02-19T05:44:40;9.10;99.90
1179;DHT22;578;48.408;10.004;2023-02-19T05:47:07;9.10;99.90
1179;DHT22;578;48.408;10.004;2023-02-19T05:49:34;9.10;99.90
1179;DHT22;578;48.408;10.004;2023-02-19T05:52:01;9.20;99.90
1179;DHT22;578;48.408;10.004;2023-02-19T05:54:27;9.20;99.90
1179;DHT22;578;48.408;10.004;2023-02-19T05:56:54;9.20;99.90
1179;DHT22;578;48.408;10.004;2023-02-19T05:59:26;9.20;99.90
1179;DHT22;578;48.408;10.004;2023-02-19T06:01:54;9.20;99.90
1179;DHT22;578;48.408;10.004;2023-02-19T06:04:22;9.10;99.90
1179;DHT22;578;48.408;10.004;2023-02-19T06:06:49;9.10;99.90
1179;DHT22;578;48.408;10.004;2023-02-19T06:09:16;9.20;99.90
1179;DHT22;578;48.408;10.004;2023-02-19T06:11:42;9.20;99.90
1179;DHT22;578;48.408;10.004;2023-02-19T06:14:11;9.10;99.90
1179;DHT22;578;48.408;10.004;2023-02-19T06:16:37;9.00;99.90
1179;DHT22;578;48.408;10.004;2023-02-19T06:19:05;8.90;99.90
1179;DHT22;578;48.408;10.004;2023-02-19T06:21:32;8.80;99.90
1179;DHT22;578;48.408;10.004;2023-02-19T06:24:03;8.70;99.90
1179;DHT22;578;48.408;10.004;2023-02-19T06:26:30;8.60;99.90
1179;DHT22;578;48.408;10.004;2023-02-19T06:28:57;8.60;99.90
1179;DHT22;578;48.408;10.004;2023-02-19T06:31:23;8.50;99.90
1179;DHT22;578;48.408;10.004;2023-02-19T06:33:50;8.50;99.90
1179;DHT22;578;48.408;10.004;2023-02-19T06:36:19;8.50;99.90
1179;DHT22;578;48.408;10.004;2023-02-19T06:38:46;8.50;99.90
1179;DHT22;578;48.408;10.004;2023-02-19T06:41:13;8.50;99.90
1179;DHT22;578;48.408;10.004;2023-02-19T06:43:40;8.50;99.90
1179;DHT22;578;48.408;10.004;2023-02-19T06:46:09;8.50;99.90
1179;DHT22;578;48.408;10.004;2023-02-19T06:48:38;8.60;99.90
1179;DHT22;578;48.408;10.004;2023-02-19T06:51:05;8.60;99.90
1179;DHT22;578;48.408;10.004;2023-02-19T06:53:33;8.60;99.90
1179;DHT22;578;48.408;10.004;2023-02-19T06:56:02;8.70;99.90
1179;DHT22;578;48.408;10.004;2023-02-19T06:58:30;8.70;99.90
1179;DHT22;578;48.408;10.004;2023-02-19T07:00:56;8.70;99.90
1179;DHT22;578;48.408;10.004;2023-02-19T07:03:23;8.70;99.90
1179;DHT22;578;48.408;10.004;2023-02-19T07:05:50;8.80;99.90
1179;DHT22;578;48.408;10.004;2023-02-19T07:08:17;8.80;99.90
1179;DHT22;578;48.408;10.004;2023-02-19T07:10:52;8.80;99.90
1179;DHT22;578;48.408;10.004;2023-02-19T07:13:19;8.90;99.90
1179;DHT22;578;48.408;10.004;2023-02-19T07:15:45;8.90;99.90
1179;DHT22;578;48.408;10.004;2023-02-19T07:18:12;8.90;99.90
1179;DHT22;578;48.408;10.004;2023-02-19T07:20:39;8.90;99.90
1179;DHT22;578;48.408;10.004;2023-02-19T07:23:05;8.90;99.90
1179;DHT22;578;48.408;10.004;2023-02-19T07:25:32;8.90;99.90
1179;DHT22;578;48.408;10.004;2023-02-19T07:28:00;8.90;99.90
1179;DHT22;578;48.408;10.004;2023-02-19T07:30:27;8.90;99.90
1179;DHT22;578;48.408;10.004;2023-02-19T07:32:53;8.90;99.90
1179;DHT22;578;48.408;10.004;2023-02-19T07:35:20;9.00;99.90
1179;DHT22;578;48.408;10.004;2023-02-19T07:37:47;9.00;99.90
1179;DHT22;578;48.408;10.004;2023-02-19T07:40:14;9.00;99.90
1179;DHT22;578;48.408;10.004;2023-02-19T07:42:40;9.00;99.90
1179;DHT22;578;48.408;10.004;2023-02-19T07:45:08;9.00;99.90
1179;DHT22;578;48.408;10.004;2023-02-19T07:47:35;9.10;99.90
1179;DHT22;578;48.408;10.004;2023-02-19T07:50:02;9.10;99.90
1179;DHT22;578;48.408;10.004;2023-02-19T07:52:28;8.90;99.90
1179;DHT22;578;48.408;10.004;2023-02-19T07:54:55;8.70;99.90
1179;DHT22;578;48.408;10.004;2023-02-19T07:57:22;8.30;99.90
1179;DHT22;578;48.408;10.004;2023-02-19T07:59:48;8.10;99.90
1179;DHT22;578;48.408;10.004;2023-02-19T08:02:17;8.00;99.90
1179;DHT22;578;48.408;10.004;2023-02-19T08:05:02;7.90;99.90
1179;DHT22;578;48.408;10.004;2023-02-19T08:07:32;7.90;99.90
1179;DHT22;578;48.408;10.004;2023-02-19T08:09:59;8.00;99.90
1179;DHT22;578;48.408;10.004;2023-02-19T08:12:40;8.10;99.90
1179;DHT22;578;48.408;10.004;2023-02-19T08:15:24;8.20;99.90
1179;DHT22;578;48.408;10.004;2023-02-19T08:17:52;8.20;99.90
1179;DHT22;578;48.408;10.004;2023-02-19T08:20:18;8.40;99.90
1179;DHT22;578;48.408;10.004;2023-02-19T08:22:45;8.30;99.90
1179;DHT22;578;48.408;10.004;2023-02-19T08:25:12;8.40;99.90
1179;DHT22;578;48.408;10.004;2023-02-19T08:27:39;8.40;99.90
1179;DHT22;578;48.408;10.004;2023-02-19T08:30:06;8.50;99.90
1179;DHT22;578;48.408;10.004;2023-02-19T08:32:33;8.50;99.90
1179;DHT22;578;48.408;10.004;2023-02-19T08:35:02;8.60;99.90
1179;DHT22;578;48.408;10.004;2023-02-19T08:37:28;8.60;99.90
1179;DHT22;578;48.408;10.004;2023-02-19T08:39:55;8.60;99.90
1179;DHT22;578;48.408;10.004;2023-02-19T08:42:22;8.70;99.90
1179;DHT22;578;48.408;10.004;2023-02-19T08:44:48;8.70;99.90
1179;DHT22;578;48.408;10.004;2023-02-19T08:47:15;8.70;99.90
1179;DHT22;578;48.408;10.004;2023-02-19T08:49:42;8.70;99.90
1179;DHT22;578;48.408;10.004;2023-02-19T08:52:10;8.80;99.90
1179;DHT22;578;48.408;10.004;2023-02-19T08:54:36;8.80;99.90
1179;DHT22;578;48.408;10.004;2023-02-19T08:57:03;8.90;99.90
1179;DHT22;578;48.408;10.004;2023-02-19T08:59:30;8.90;99.90
1179;DHT22;578;48.408;10.004;2023-02-19T09:01:57;8.90;99.90
1179;DHT22;578;48.408;10.004;2023-02-19T09:04:24;9.00;99.90
1179;DHT22;578;48.408;10.004;2023-02-19T09:06:50;9.20;99.90
1179;DHT22;578;48.408;10.004;2023-02-19T09:09:18;9.30;99.90
1179;DHT22;578;48.408;10.004;2023-02-19T09:11:45;9.40;99.90
1179;DHT22;578;48.408;10.004;2023-02-19T09:14:12;9.40;99.90
1179;DHT22;578;48.408;10.004;2023-02-19T09:16:39;9.50;99.90
1179;DHT22;578;48.408;10.004;2023-02-19T09:19:05;9.60;99.90
1179;DHT22;578;48.408;10.004;2023-02-19T09:21:32;9.60;99.90
1179;DHT22;578;48.408;10.004;2023-02-19T09:23:59;9.50;99.90
1179;DHT22;578;48.408;10.004;2023-02-19T09:26:27;9.70;99.90
1179;DHT22;578;48.408;10.004;2023-02-19T09:28:53;9.50;99.90
1179;DHT22;578;48.408;10.004;2023-02-19T09:31:20;9.50;99.90
1179;DHT22;578;48.408;10.004;2023-02-19T09:33:47;9.60;99.90
1179;DHT22;578;48.408;10.004;2023-02-19T09:36:15;9.40;99.90
1179;DHT22;578;48.408;10.004;2023-02-19T09:38:43;9.30;99.90
1179;DHT22;578;48.408;10.004;2023-02-19T09:41:16;9.20;99.90
1179;DHT22;578;48.408;10.004;2023-02-19T09:43:45;9.10;99.90
1179;DHT22;578;48.408;10.004;2023-02-19T09:46:22;9.20;99.90
1179;DHT22;578;48.408;10.004;2023-02-19T09:48:51;9.00;99.90
1179;DHT22;578;48.408;10.004;2023-02-19T09:51:18;9.10;99.90
1179;DHT22;578;48.408;10.004;2023-02-19T09:53:48;9.30;99.90
1179;DHT22;578;48.408;10.004;2023-02-19T09:56:16;9.50;99.90
1179;DHT22;578;48.408;10.004;2023-02-19T09:58:47;9.90;99.90
1179;DHT22;578;48.408;10.004;2023-02-19T10:01:15;9.60;99.90
1179;DHT22;578;48.408;10.004;2023-02-19T10:03:43;9.60;99.90
1179;DHT22;578;48.408;10.004;2023-02-19T10:06:15;9.30;99.90
1179;DHT22;578;48.408;10.004;2023-02-19T10:08:44;9.40;99.90
1179;DHT22;578;48.408;10.004;2023-02-19T10:11:12;9.60;99.90
1179;DHT22;578;48.408;10.004;2023-02-19T10:13:41;9.70;99.90
1179;DHT22;578;48.408;10.004;2023-02-19T10:16:12;9.70;99.90
1179;DHT22;578;48.408;10.004;2023-02-19T10:18:43;9.60;99.90
1179;DHT22;578;48.408;10.004;2023-02-19T10:21:15;9.70;99.90
1179;DHT22;578;48.408;10.004;2023-02-19T10:23:44;9.70;99.90
1179;DHT22;578;48.408;10.004;2023-02-19T10:26:11;9.80;99.90
1179;DHT22;578;48.408;10.004;2023-02-19T10:28:38;9.80;99.90
1179;DHT22;578;48.408;10.004;2023-02-19T10:31:14;9.70;99.90
1179;DHT22;578;48.408;10.004;2023-02-19T10:33:48;9.60;99.90
1179;DHT22;578;48.408;10.004;2023-02-19T10:36:23;9.40;99.90
1179;DHT22;578;48.408;10.004;2023-02-19T10:38:50;9.20;99.90
1179;DHT22;578;48.408;10.004;2023-02-19T10:41:20;9.10;99.90
1179;DHT22;578;48.408;10.004;2023-02-19T10:43:51;9.00;99.90
1179;DHT22;578;48.408;10.004;2023-02-19T10:46:23;8.90;99.90
1179;DHT22;578;48.408;10.004;2023-02-19T10:48:52;8.70;99.90
1179;DHT22;578;48.408;10.004;2023-02-19T10:51:24;8.30;99.90
1179;DHT22;578;48.408;10.004;2023-02-19T10:54:03;8.10;99.90
1179;DHT22;578;48.408;10.004;2023-02-19T10:56:30;8.10;99.90
1179;DHT22;578;48.408;10.004;2023-02-19T10:59:14;8.10;99.90
1179;DHT22;578;48.408;10.004;2023-02-19T11:01:54;8.10;99.90
1179;DHT22;578;48.408;10.004;2023-02-19T11:04:21;8.30;99.90
1179;DHT22;578;48.408;10.004;2023-02-19T11:06:48;8.60;99.90
1179;DHT22;578;48.408;10.004;2023-02-19T11:09:24;9.00;99.90
1179;DHT22;578;48.408;10.004;2023-02-19T11:11:53;9.40;99.90
1179;DHT22;578;48.408;10.004;2023-02-19T11:14:22;9.40;99.90
1179;DHT22;578;48.408;10.004;2023-02-19T11:16:52;9.30;99.90
1179;DHT22;578;48.408;10.004;2023-02-19T11:19:27;9.30;99.90
1179;DHT22;578;48.408;10.004;2023-02-19T11:21:54;9.30;99.90
1179;DHT22;578;48.408;10.004;2023-02-19T11:24:25;9.30;99.90
1179;DHT22;578;48.408;10.004;2023-02-19T11:26:54;9.40;99.90
1179;DHT22;578;48.408;10.004;2023-02-19T11:29:22;9.60;99.90
1179;DHT22;578;48.408;10.004;2023-02-19T11:31:54;9.90;99.90
1179;DHT22;578;48.408;10.004;2023-02-19T11:34:27;10.10;99.90
1179;DHT22;578;48.408;10.004;2023-02-19T11:37:11;10.00;99.90
1179;DHT22;578;48.408;10.004;2023-02-19T11:39:40;10.00;99.90
1179;DHT22;578;48.408;10.004;2023-02-19T11:42:37;10.00;99.90
1179;DHT22;578;48.408;10.004;2023-02-19T11:45:13;9.90;99.90
1179;DHT22;578;48.408;10.004;2023-02-19T11:48:00;9.80;99.90
1179;DHT22;578;48.408;10.004;2023-02-19T11:50:40;9.70;99.90
1179;DHT22;578;48.408;10.004;2023-02-19T11:53:15;9.70;99.90
1179;DHT22;578;48.408;10.004;2023-02-19T11:55:52;9.90;99.90
1179;DHT22;578;48.408;10.004;2023-02-19T11:58:55;9.90;99.90
1179;DHT22;578;48.408;10.004;2023-02-19T12:01:45;9.80;99.90
1179;DHT22;578;48.408;10.004;2023-02-19T12:04:32;9.90;99.90
1179;DHT22;578;48.408;10.004;2023-02-19T12:07:14;9.90;99.90
1179;DHT22;578;48.408;10.004;2023-02-19T12:09:51;9.90;99.90
1179;DHT22;578;48.408;10.004;2023-02-19T12:12:32;9.80;99.90
1179;DHT22;578;48.408;10.004;2023-02-19T12:15:15;10.00;99.90
1179;DHT22;578;48.408;10.004;2023-02-19T12:18:00;10.00;99.90
1179;DHT22;578;48.408;10.004;2023-02-19T12:20:34;10.00;99.90
1179;DHT22;578;48.408;10.004;2023-02-19T12:23:25;10.20;99.70
1179;DHT22;578;48.408;10.004;2023-02-19T12:25:56;10.80;99.40
1179;DHT22;578;48.408;10.004;2023-02-19T12:28:38;10.70;97.60
1179;DHT22;578;48.408;10.004;2023-02-19T12:31:29;10.70;95.70
1179;DHT22;578;48.408;10.004;2023-02-19T12:34:34;10.90;99.90
1179;DHT22;578;48.408;10.004;2023-02-19T12:37:17;10.90;96.80
1179;DHT22;578;48.408;10.004;2023-02-19T12:39:54;10.40;94.20
1179;DHT22;578;48.408;10.004;2023-02-19T12:42:36;10.40;97.50
1179;DHT22;578;48.408;10.004;2023-02-19T12:45:13;10.40;94.00
1179;DHT22;578;48.408;10.004;2023-02-19T12:47:43;10.40;96.00
1179;DHT22;578;48.408;10.004;2023-02-19T12:50:17;10.30;95.60
1179;DHT22;578;48.408;10.004;2023-02-19T12:52:48;10.40;94.30
1179;DHT22;578;48.408;10.004;2023-02-19T12:55:20;10.50;95.20
1179;DHT22;578;48.408;10.004;2023-02-19T12:57:47;10.10;92.60
1179;DHT22;578;48.408;10.004;2023-02-19T13:00:27;10.10;92.40
1179;DHT22;578;48.408;10.004;2023-02-19T13:02:59;10.30;93.30
1179;DHT22;578;48.408;10.004;2023-02-19T13:05:38;10.20;91.60
1179;DHT22;578;48.408;10.004;2023-02-19T13:08:13;10.20;92.30
1179;DHT22;578;48.408;10.004;2023-02-19T13:10:45;10.30;91.80
1179;DHT22;578;48.408;10.004;2023-02-19T13:13:19;10.40;90.40
1179;DHT22;578;48.408;10.004;2023-02-19T13:15:49;10.50;88.90
1179;DHT22;578;48.408;10.004;2023-02-19T13:18:19;10.90;86.20
1179;DHT22;578;48.408;10.004;2023-02-19T13:20:48;11.10;90.90
1179;DHT22;578;48.408;10.004;2023-02-19T13:23:20;11.00;89.20
1179;DHT22;578;48.408;10.004;2023-02-19T13:26:18;11.20;85.20
1179;DHT22;578;48.408;10.004;2023-02-19T13:28:57;11.40;87.10
1179;DHT22;578;48.408;10.004;2023-02-19T13:31:52;11.50;85.90
1179;DHT22;578;48.408;10.004;2023-02-19T13:34:32;11.90;84.20
1179;DHT22;578;48.408;10.004;2023-02-19T13:37:06;11.60;83.10
1179;DHT22;578;48.408;10.004;2023-02-19T13:39:34;11.30;83.50
1179;DHT22;578;48.408;10.004;2023-02-19T13:42:01;11.10;82.00
1179;DHT22;578;48.408;10.004;2023-02-19T13:44:29;11.00;85.20
1179;DHT22;578;48.408;10.004;2023-02-19T13:46:57;10.80;82.80
1179;DHT22;578;48.408;10.004;2023-02-19T13:49:42;10.70;83.30
1179;DHT22;578;48.408;10.004;2023-02-19T13:52:36;10.60;79.30
1179;DHT22;578;48.408;10.004;2023-02-19T13:58:35;10.40;85.10
1179;DHT22;578;48.408;10.004;2023-02-19T14:01:03;10.30;84.50
1179;DHT22;578;48.408;10.004;2023-02-19T14:03:43;10.40;81.00
1179;DHT22;578;48.408;10.004;2023-02-19T14:06:10;10.50;84.30
1179;DHT22;578;48.408;10.004;2023-02-19T14:08:49;10.60;86.80
1179;DHT22;578;48.408;10.004;2023-02-19T14:11:18;10.60;84.20
1179;DHT22;578;48.408;10.004;2023-02-19T14:14:24;10.60;83.40
1179;DHT22;578;48.408;10.004;2023-02-19T14:16:55;10.60;82.10
1179;DHT22;578;48.408;10.004;2023-02-19T14:19:51;10.40;78.50
1179;DHT22;578;48.408;10.004;2023-02-19T14:25:52;10.50;85.20
1179;DHT22;578;48.408;10.004;2023-02-19T14:28:42;10.50;82.80
1179;DHT22;578;48.408;10.004;2023-02-19T14:31:20;10.60;85.90
1179;DHT22;578;48.408;10.004;2023-02-19T14:33:49;10.50;83.70
1179;DHT22;578;48.408;10.004;2023-02-19T14:39:17;10.70;85.40
1179;DHT22;578;48.408;10.004;2023-02-19T14:41:47;10.80;83.20
1179;DHT22;578;48.408;10.004;2023-02-19T14:44:18;10.80;83.80
1179;DHT22;578;48.408;10.004;2023-02-19T14:46:52;10.70;82.90
1179;DHT22;578;48.408;10.004;2023-02-19T14:49:24;10.80;84.80
1179;DHT22;578;48.408;10.004;2023-02-19T14:51:56;10.70;84.70
1179;DHT22;578;48.408;10.004;2023-02-19T14:54:34;10.70;82.00
1179;DHT22;578;48.408;10.004;2023-02-19T14:57:03;10.70;80.80
1179;DHT22;578;48.408;10.004;2023-02-19T14:59:31;10.60;82.50
1179;DHT22;578;48.408;10.004;2023-02-19T15:02:01;10.60;81.40
1179;DHT22;578;48.408;10.004;2023-02-19T15:04:34;10.60;79.60
1179;DHT22;578;48.408;10.004;2023-02-19T15:07:04;10.50;82.20
1179;DHT22;578;48.408;10.004;2023-02-19T15:09:35;10.50;81.80
1179;DHT22;578;48.408;10.004;2023-02-19T15:12:04;10.50;83.70
1179;DHT22;578;48.408;10.004;2023-02-19T15:14:32;10.40;82.50
1179;DHT22;578;48.408;10.004;2023-02-19T15:17:02;10.50;81.80
1179;DHT22;578;48.408;10.004;2023-02-19T15:19:32;10.40;79.10
1179;DHT22;578;48.408;10.004;2023-02-19T15:22:00;10.20;80.20
1179;DHT22;578;48.408;10.004;2023-02-19T15:24:28;10.20;79.50
1179;DHT22;578;48.408;10.004;2023-02-19T15:26:54;10.10;81.00
1179;DHT22;578;48.408;10.004;2023-02-19T15:29:23;10.00;80.60
1179;DHT22;578;48.408;10.004;2023-02-19T15:31:53;10.00;81.30
1179;DHT22;578;48.408;10.004;2023-02-19T15:34:24;9.90;82.70
1179;DHT22;578;48.408;10.004;2023-02-19T15:36:55;9.90;85.10
1179;DHT22;578;48.408;10.004;2023-02-19T15:39:24;9.90;81.70
1179;DHT22;578;48.408;10.004;2023-02-19T15:41:54;9.90;83.40
1179;DHT22;578;48.408;10.004;2023-02-19T15:44:38;9.80;86.10
1179;DHT22;578;48.408;10.004;2023-02-19T15:47:12;9.70;86.60
1179;DHT22;578;48.408;10.004;2023-02-19T15:49:47;9.80;85.40
1179;DHT22;578;48.408;10.004;2023-02-19T15:52:33;9.70;86.90
1179;DHT22;578;48.408;10.004;2023-02-19T15:55:06;9.70;88.80
1179;DHT22;578;48.408;10.004;2023-02-19T15:57:40;9.70;86.30
1179;DHT22;578;48.408;10.004;2023-02-19T16:00:13;9.60;86.80
1179;DHT22;578;48.408;10.004;2023-02-19T16:02:42;9.50;91.10
1179;DHT22;578;48.408;10.004;2023-02-19T16:05:22;9.40;90.10
1179;DHT22;578;48.408;10.004;2023-02-19T16:08:05;9.40;89.60
1179;DHT22;578;48.408;10.004;2023-02-19T16:10:32;9.30;90.60
1179;DHT22;578;48.408;10.004;2023-02-19T16:13:00;9.20;91.30
1179;DHT22;578;48.408;10.004;2023-02-19T16:15:28;9.20;91.20
1179;DHT22;578;48.408;10.004;2023-02-19T16:17:56;9.10;91.90
1179;DHT22;578;48.408;10.004;2023-02-19T16:20:26;9.00;92.90
1179;DHT22;578;48.408;10.004;2023-02-19T16:22:57;9.00;93.70
1179;DHT22;578;48.408;10.004;2023-02-19T16:25:28;8.90;95.00
1179;DHT22;578;48.408;10.004;2023-02-19T16:27:56;8.90;94.80
1179;DHT22;578;48.408;10.004;2023-02-19T16:30:29;8.80;96.80
1179;DHT22;578;48.408;10.004;2023-02-19T16:33:18;8.80;97.00
1179;DHT22;578;48.408;10.004;2023-02-19T16:35:46;8.70;98.30
1179;DHT22;578;48.408;10.004;2023-02-19T16:38:15;8.70;98.60
1179;DHT22;578;48.408;10.004;2023-02-19T16:41:04;8.70;98.00
1179;DHT22;578;48.408;10.004;2023-02-19T16:43:38;8.70;99.50
1179;DHT22;578;48.408;10.004;2023-02-19T16:46:10;8.60;99.80
1179;DHT22;578;48.408;10.004;2023-02-19T16:48:37;8.50;99.90
1179;DHT22;578;48.408;10.004;2023-02-19T16:51:06;8.50;99.90
1179;DHT22;578;48.408;10.004;2023-02-19T16:53:33;8.50;99.90